sensor_id;sensor_type;location;lat;lon;timestamp;pressure;altitude;pressure_sealevel;temperature;humidity
38612;BME280;24368;52.156;20.788;2022-09-03T00:01:27;101015.29;;;11.25;81.71
38612;BME280;24368;52.156;20.788;2022-09-03T00:06:37;101018.64;;;11.22;82.03
38612;BME280;24368;52.156;20.788;2022-09-03T00:17:44;101014.55;;;11.01;83.10
38612;BME280;24368;52.156;20.788;2022-09-03T00:23:00;101017.97;;;10.98;82.92
38612;BME280;24368;52.156;20.788;2022-09-03T00:28:11;101014.90;;;10.97;81.82
38612;BME280;24368;52.156;20.788;2022-09-03T00:33:20;101017.69;;;10.86;82.17
38612;BME280;24368;52.156;20.788;2022-09-03T00:38:22;101014.98;;;10.86;83.09
38612;BME280;24368;52.156;20.788;2022-09-03T00:49:34;101021.75;;;10.78;83.44
38612;BME280;24368;52.156;20.788;2022-09-03T01:05:10;101032.11;;;10.53;83.85
38612;BME280;24368;52.156;20.788;2022-09-03T01:47:26;101014.98;;;10.05;87.69
38612;BME280;24368;52.156;20.788;2022-09-03T01:53:02;101012.63;;;9.92;87.65
38612;BME280;24368;52.156;20.788;2022-09-03T02:03:36;101011.39;;;9.96;86.33
38612;BME280;24368;52.156;20.788;2022-09-03T02:08:40;101009.12;;;9.84;86.76
38612;BME280;24368;52.156;20.788;2022-09-03T02:13:53;101007.06;;;9.63;87.46
38612;BME280;24368;52.156;20.788;2022-09-03T02:19:01;101003.02;;;9.54;87.77
38612;BME280;24368;52.156;20.788;2022-09-03T02:24:05;100997.95;;;9.50;88.35
38612;BME280;24368;52.156;20.788;2022-09-03T02:29:09;101004.70;;;9.43;88.99
38612;BME280;24368;52.156;20.788;2022-09-03T02:34:11;101001.36;;;9.37;89.18
38612;BME280;24368;52.156;20.788;2022-09-03T02:39:15;101007.75;;;9.32;89.25
38612;BME280;24368;52.156;20.788;2022-09-03T02:44:21;101008.87;;;9.23;89.76
38612;BME280;24368;52.156;20.788;2022-09-03T02:49:27;101009.59;;;9.19;90.05
38612;BME280;24368;52.156;20.788;2022-09-03T02:54:30;101006.00;;;9.09;89.24
38612;BME280;24368;52.156;20.788;2022-09-03T02:59:34;101006.73;;;9.02;88.84
38612;BME280;24368;52.156;20.788;2022-09-03T03:04:36;101010.44;;;9.02;88.12
38612;BME280;24368;52.156;20.788;2022-09-03T03:09:38;101006.33;;;9.01;87.81
38612;BME280;24368;52.156;20.788;2022-09-03T03:14:40;101013.20;;;8.94;87.55
38612;BME280;24368;52.156;20.788;2022-09-03T03:19:41;101014.98;;;8.86;87.72
38612;BME280;24368;52.156;20.788;2022-09-03T03:24:43;101016.36;;;8.77;87.81
38612;BME280;24368;52.156;20.788;2022-09-03T03:29:45;101021.69;;;8.75;88.20
38612;BME280;24368;52.156;20.788;2022-09-03T03:34:47;101015.63;;;8.69;88.88
38612;BME280;24368;52.156;20.788;2022-09-03T03:39:49;101020.51;;;8.67;88.58
38612;BME280;24368;52.156;20.788;2022-09-03T03:44:51;101028.49;;;8.60;89.16
38612;BME280;24368;52.156;20.788;2022-09-03T03:49:53;101029.54;;;8.55;89.61
38612;BME280;24368;52.156;20.788;2022-09-03T03:54:54;101029.73;;;8.58;90.63
38612;BME280;24368;52.156;20.788;2022-09-03T03:59:58;101029.69;;;8.58;91.17
38612;BME280;24368;52.156;20.788;2022-09-03T04:05:00;101030.61;;;8.55;91.45
38612;BME280;24368;52.156;20.788;2022-09-03T04:10:02;101031.16;;;8.66;91.49
38612;BME280;24368;52.156;20.788;2022-09-03T04:15:05;101031.55;;;8.61;91.59
38612;BME280;24368;52.156;20.788;2022-09-03T04:20:07;101037.33;;;8.53;92.73
38612;BME280;24368;52.156;20.788;2022-09-03T04:25:09;101032.70;;;8.49;92.93
38612;BME280;24368;52.156;20.788;2022-09-03T04:30:11;101030.44;;;8.51;92.89
38612;BME280;24368;52.156;20.788;2022-09-03T04:35:13;101030.55;;;8.54;92.81
38612;BME280;24368;52.156;20.788;2022-09-03T04:40:17;101032.88;;;8.55;92.20
38612;BME280;24368;52.156;20.788;2022-09-03T04:45:18;101035.81;;;8.48;92.73
38612;BME280;24368;52.156;20.788;2022-09-03T04:50:21;101044.73;;;8.52;93.43
38612;BME280;24368;52.156;20.788;2022-09-03T04:55:23;101050.24;;;8.63;92.79
38612;BME280;24368;52.156;20.788;2022-09-03T05:00:25;101055.38;;;8.73;91.91
38612;BME280;24368;52.156;20.788;2022-09-03T05:05:28;101053.27;;;8.79;90.89
38612;BME280;24368;52.156;20.788;2022-09-03T05:10:30;101060.56;;;8.82;91.30
38612;BME280;24368;52.156;20.788;2022-09-03T05:15:32;101064.78;;;8.91;91.60
38612;BME280;24368;52.156;20.788;2022-09-03T05:20:33;101058.69;;;9.03;91.77
38612;BME280;24368;52.156;20.788;2022-09-03T05:25:35;101063.50;;;9.30;91.32
38612;BME280;24368;52.156;20.788;2022-09-03T05:30:38;101062.63;;;9.46;91.15
38612;BME280;24368;52.156;20.788;2022-09-03T05:35:40;101062.66;;;9.65;91.50
38612;BME280;24368;52.156;20.788;2022-09-03T05:40:42;101064.55;;;9.88;89.68
38612;BME280;24368;52.156;20.788;2022-09-03T05:45:44;101063.31;;;10.12;87.27
38612;BME280;24368;52.156;20.788;2022-09-03T05:50:45;101059.59;;;10.37;84.51
38612;BME280;24368;52.156;20.788;2022-09-03T05:55:54;101053.15;;;10.60;82.94
38612;BME280;24368;52.156;20.788;2022-09-03T06:00:57;101048.69;;;10.74;82.53
38612;BME280;24368;52.156;20.788;2022-09-03T06:05:59;101052.70;;;10.85;82.02
38612;BME280;24368;52.156;20.788;2022-09-03T06:11:02;101055.85;;;10.94;81.96
38612;BME280;24368;52.156;20.788;2022-09-03T06:16:06;101053.05;;;11.02;80.88
38612;BME280;24368;52.156;20.788;2022-09-03T06:21:08;101050.52;;;11.13;80.34
38612;BME280;24368;52.156;20.788;2022-09-03T06:26:13;101046.16;;;11.22;80.09
38612;BME280;24368;52.156;20.788;2022-09-03T06:31:16;101049.90;;;11.31;78.98
38612;BME280;24368;52.156;20.788;2022-09-03T06:36:19;101058.27;;;11.43;78.04
38612;BME280;24368;52.156;20.788;2022-09-03T06:41:24;101056.65;;;11.55;77.26
38612;BME280;24368;52.156;20.788;2022-09-03T06:46:26;101057.48;;;11.67;76.47
38612;BME280;24368;52.156;20.788;2022-09-03T06:51:30;101057.94;;;11.79;75.49
38612;BME280;24368;52.156;20.788;2022-09-03T06:56:34;101058.65;;;11.92;75.04
38612;BME280;24368;52.156;20.788;2022-09-03T07:01:36;101056.66;;;12.10;74.61
38612;BME280;24368;52.156;20.788;2022-09-03T07:06:41;101052.09;;;12.31;73.74
38612;BME280;24368;52.156;20.788;2022-09-03T07:11:43;101050.30;;;12.55;72.20
38612;BME280;24368;52.156;20.788;2022-09-03T07:16:48;101053.89;;;12.73;70.07
38612;BME280;24368;52.156;20.788;2022-09-03T07:21:51;101059.20;;;12.90;67.65
38612;BME280;24368;52.156;20.788;2022-09-03T07:26:52;101059.59;;;13.01;66.59
38612;BME280;24368;52.156;20.788;2022-09-03T07:31:56;101055.86;;;13.28;65.22
38612;BME280;24368;52.156;20.788;2022-09-03T07:36:58;101061.73;;;13.31;64.35
38612;BME280;24368;52.156;20.788;2022-09-03T07:41:59;101061.58;;;13.36;62.81
38612;BME280;24368;52.156;20.788;2022-09-03T07:47:01;101062.11;;;13.52;62.53
38612;BME280;24368;52.156;20.788;2022-09-03T07:52:03;101059.02;;;13.56;62.22
38612;BME280;24368;52.156;20.788;2022-09-03T07:57:05;101062.55;;;13.68;61.85
38612;BME280;24368;52.156;20.788;2022-09-03T08:02:07;101062.59;;;13.97;59.69
38612;BME280;24368;52.156;20.788;2022-09-03T08:07:09;101061.23;;;14.22;59.10
38612;BME280;24368;52.156;20.788;2022-09-03T08:12:11;101057.70;;;14.32;58.48
38612;BME280;24368;52.156;20.788;2022-09-03T08:17:12;101057.91;;;14.56;57.19
38612;BME280;24368;52.156;20.788;2022-09-03T08:22:14;101058.67;;;14.75;54.89
38612;BME280;24368;52.156;20.788;2022-09-03T08:27:16;101057.11;;;15.00;53.55
38612;BME280;24368;52.156;20.788;2022-09-03T08:32:22;101058.30;;;15.13;52.67
38612;BME280;24368;52.156;20.788;2022-09-03T08:37:24;101051.31;;;15.41;51.17
38612;BME280;24368;52.156;20.788;2022-09-03T08:48:03;101043.48;;;15.74;49.09
38612;BME280;24368;52.156;20.788;2022-09-03T08:58:16;101032.84;;;15.80;48.89
38612;BME280;24368;52.156;20.788;2022-09-03T09:24:52;101027.86;;;16.64;43.75
38612;BME280;24368;52.156;20.788;2022-09-03T09:29:57;101030.67;;;16.80;44.43
38612;BME280;24368;52.156;20.788;2022-09-03T09:35:08;101026.51;;;16.81;43.35
38612;BME280;24368;52.156;20.788;2022-09-03T09:40:24;101030.02;;;17.03;42.91
38612;BME280;24368;52.156;20.788;2022-09-03T09:45:27;101026.96;;;17.13;42.16
38612;BME280;24368;52.156;20.788;2022-09-03T09:50:29;101021.27;;;17.24;41.88
38612;BME280;24368;52.156;20.788;2022-09-03T09:55:30;101019.85;;;17.44;42.46
38612;BME280;24368;52.156;20.788;2022-09-03T10:00:33;101021.77;;;17.68;43.45
38612;BME280;24368;52.156;20.788;2022-09-03T10:05:38;101017.32;;;17.75;42.78
38612;BME280;24368;52.156;20.788;2022-09-03T10:10:44;101009.13;;;17.82;44.61
38612;BME280;24368;52.156;20.788;2022-09-03T10:16:01;101009.92;;;17.97;44.66
38612;BME280;24368;52.156;20.788;2022-09-03T10:21:09;101002.59;;;17.96;43.49
38612;BME280;24368;52.156;20.788;2022-09-03T10:26:18;101002.54;;;18.22;43.55
38612;BME280;24368;52.156;20.788;2022-09-03T10:32:02;100995.89;;;18.50;42.35
38612;BME280;24368;52.156;20.788;2022-09-03T10:37:28;100988.14;;;18.72;43.04
38612;BME280;24368;52.156;20.788;2022-09-03T10:53:34;100975.23;;;19.72;39.67
38612;BME280;24368;52.156;20.788;2022-09-03T11:09:18;100969.65;;;20.20;37.79
38612;BME280;24368;52.156;20.788;2022-09-03T11:14:37;100962.91;;;20.62;37.93
38612;BME280;24368;52.156;20.788;2022-09-03T11:19:46;100955.77;;;20.94;37.80
38612;BME280;24368;52.156;20.788;2022-09-03T11:24:57;100944.70;;;21.24;36.75
38612;BME280;24368;52.156;20.788;2022-09-03T11:30:05;100942.70;;;21.55;36.36
38612;BME280;24368;52.156;20.788;2022-09-03T11:35:38;100949.12;;;21.69;34.72
38612;BME280;24368;52.156;20.788;2022-09-03T11:41:22;100950.20;;;21.28;33.91
38612;BME280;24368;52.156;20.788;2022-09-03T11:46:28;100948.62;;;20.83;35.43
38612;BME280;24368;52.156;20.788;2022-09-03T11:51:33;100942.91;;;20.68;35.49
38612;BME280;24368;52.156;20.788;2022-09-03T11:56:39;100933.02;;;20.78;35.26
38612;BME280;24368;52.156;20.788;2022-09-03T12:01:55;100927.26;;;21.16;34.17
38612;BME280;24368;52.156;20.788;2022-09-03T12:13:05;100915.27;;;22.47;32.51
38612;BME280;24368;52.156;20.788;2022-09-03T12:18:18;100910.31;;;22.14;32.82
38612;BME280;24368;52.156;20.788;2022-09-03T12:28:35;100901.77;;;21.47;33.67
38612;BME280;24368;52.156;20.788;2022-09-03T12:33:40;100893.68;;;21.35;33.79
38612;BME280;24368;52.156;20.788;2022-09-03T12:38:43;100884.06;;;21.24;35.47
38612;BME280;24368;52.156;20.788;2022-09-03T12:43:50;100884.35;;;21.36;33.98
38612;BME280;24368;52.156;20.788;2022-09-03T12:48:54;100885.40;;;21.43;32.55
38612;BME280;24368;52.156;20.788;2022-09-03T12:53:57;100878.52;;;21.73;32.26
38612;BME280;24368;52.156;20.788;2022-09-03T12:59:08;100869.09;;;21.43;32.98
38612;BME280;24368;52.156;20.788;2022-09-03T13:04:17;100871.73;;;21.51;32.85
38612;BME280;24368;52.156;20.788;2022-09-03T13:09:22;100865.86;;;22.84;30.45
38612;BME280;24368;52.156;20.788;2022-09-03T13:14:25;100859.84;;;23.46;28.93
38612;BME280;24368;52.156;20.788;2022-09-03T13:30:20;100844.89;;;23.30;29.35
38612;BME280;24368;52.156;20.788;2022-09-03T13:35:54;100844.90;;;22.96;29.11
38612;BME280;24368;52.156;20.788;2022-09-03T13:41:27;100841.20;;;22.94;30.31
38612;BME280;24368;52.156;20.788;2022-09-03T13:51:55;100842.32;;;22.25;29.95
38612;BME280;24368;52.156;20.788;2022-09-03T13:57:08;100836.54;;;22.04;30.85
38612;BME280;24368;52.156;20.788;2022-09-03T14:18:34;100829.55;;;21.90;31.38
38612;BME280;24368;52.156;20.788;2022-09-03T14:29:17;100823.80;;;21.50;31.86
38612;BME280;24368;52.156;20.788;2022-09-03T14:56:01;100820.06;;;21.31;31.06
38612;BME280;24368;52.156;20.788;2022-09-03T15:01:11;100819.52;;;21.19;31.48
38612;BME280;24368;52.156;20.788;2022-09-03T15:06:27;100814.09;;;21.10;31.65
38612;BME280;24368;52.156;20.788;2022-09-03T15:11:34;100821.14;;;20.87;32.04
38612;BME280;24368;52.156;20.788;2022-09-03T15:32:56;100817.26;;;20.48;33.07
38612;BME280;24368;52.156;20.788;2022-09-03T15:38:11;100818.21;;;20.50;33.22
38612;BME280;24368;52.156;20.788;2022-09-03T15:43:31;100818.76;;;20.53;33.34
38612;BME280;24368;52.156;20.788;2022-09-03T15:48:47;100823.52;;;20.39;33.57
38612;BME280;24368;52.156;20.788;2022-09-03T15:53:58;100827.87;;;20.29;33.74
38612;BME280;24368;52.156;20.788;2022-09-03T16:00:03;100826.45;;;20.26;33.80
38612;BME280;24368;52.156;20.788;2022-09-03T16:04:59;100832.60;;;20.19;33.77
38612;BME280;24368;52.156;20.788;2022-09-03T16:10:13;100831.35;;;20.12;34.37
38612;BME280;24368;52.156;20.788;2022-09-03T16:15:21;100831.69;;;20.07;34.00
38612;BME280;24368;52.156;20.788;2022-09-03T16:20:34;100838.33;;;20.06;34.04
38612;BME280;24368;52.156;20.788;2022-09-03T16:52:27;100838.71;;;19.57;36.22
38612;BME280;24368;52.156;20.788;2022-09-03T17:03:13;100848.45;;;19.39;36.59
38612;BME280;24368;52.156;20.788;2022-09-03T17:13:50;100847.54;;;19.18;38.21
38612;BME280;24368;52.156;20.788;2022-09-03T17:19:13;100854.45;;;19.01;39.46
38612;BME280;24368;52.156;20.788;2022-09-03T17:29:44;100861.35;;;18.61;40.85
38612;BME280;24368;52.156;20.788;2022-09-03T17:40:34;100879.41;;;18.29;44.23
38612;BME280;24368;52.156;20.788;2022-09-03T17:51:07;100885.14;;;17.91;44.80
38612;BME280;24368;52.156;20.788;2022-09-03T18:01:26;100894.80;;;17.70;46.30
38612;BME280;24368;52.156;20.788;2022-09-03T18:06:44;100894.64;;;17.61;47.25
38612;BME280;24368;52.156;20.788;2022-09-03T18:12:03;100892.88;;;17.39;47.52
38612;BME280;24368;52.156;20.788;2022-09-03T18:22:23;100892.67;;;17.30;48.16
38612;BME280;24368;52.156;20.788;2022-09-03T18:27:52;100894.63;;;17.20;48.16
38612;BME280;24368;52.156;20.788;2022-09-03T18:33:18;100894.94;;;17.13;48.44
38612;BME280;24368;52.156;20.788;2022-09-03T18:38:40;100897.17;;;17.02;49.37
38612;BME280;24368;52.156;20.788;2022-09-03T18:55:40;100900.39;;;16.59;51.20
38612;BME280;24368;52.156;20.788;2022-09-03T19:01:31;100900.94;;;16.47;51.89
38612;BME280;24368;52.156;20.788;2022-09-03T19:07:04;100905.13;;;16.32;52.53
38612;BME280;24368;52.156;20.788;2022-09-03T19:18:35;100909.98;;;15.99;53.40
38612;BME280;24368;52.156;20.788;2022-09-03T19:24:00;100916.89;;;15.75;54.43
38612;BME280;24368;52.156;20.788;2022-09-03T19:35:15;100913.73;;;15.47;55.53
38612;BME280;24368;52.156;20.788;2022-09-03T19:51:59;100920.52;;;15.03;57.78
38612;BME280;24368;52.156;20.788;2022-09-03T19:57:23;100920.52;;;14.94;57.99
38612;BME280;24368;52.156;20.788;2022-09-03T20:02:47;100915.59;;;15.13;57.79
38612;BME280;24368;52.156;20.788;2022-09-03T20:08:08;100913.81;;;15.12;57.69
38612;BME280;24368;52.156;20.788;2022-09-03T20:13:33;100914.30;;;15.14;58.12
38612;BME280;24368;52.156;20.788;2022-09-03T20:19:29;100922.92;;;15.13;57.94
38612;BME280;24368;52.156;20.788;2022-09-03T20:24:45;100924.92;;;15.11;57.05
38612;BME280;24368;52.156;20.788;2022-09-03T20:30:09;100927.10;;;15.04;57.42
38612;BME280;24368;52.156;20.788;2022-09-03T20:45:24;100937.42;;;14.99;56.95
38612;BME280;24368;52.156;20.788;2022-09-03T20:50:53;100936.48;;;15.01;57.26
38612;BME280;24368;52.156;20.788;2022-09-03T20:56:21;100940.38;;;15.01;55.69
38612;BME280;24368;52.156;20.788;2022-09-03T21:01:31;100941.40;;;15.08;55.51
38612;BME280;24368;52.156;20.788;2022-09-03T21:11:42;100949.89;;;15.05;55.68
38612;BME280;24368;52.156;20.788;2022-09-03T21:27:05;100956.81;;;15.02;54.47
38612;BME280;24368;52.156;20.788;2022-09-03T21:32:14;100962.95;;;14.82;54.61
38612;BME280;24368;52.156;20.788;2022-09-03T21:37:17;100960.49;;;14.71;55.40
38612;BME280;24368;52.156;20.788;2022-09-03T21:42:26;100959.09;;;14.67;55.89
38612;BME280;24368;52.156;20.788;2022-09-03T21:47:36;100954.04;;;14.63;55.40
38612;BME280;24368;52.156;20.788;2022-09-03T22:03:38;100963.94;;;14.44;57.35
38612;BME280;24368;52.156;20.788;2022-09-03T22:08:48;100966.44;;;14.43;56.66
38612;BME280;24368;52.156;20.788;2022-09-03T22:19:07;100965.70;;;14.32;56.30
38612;BME280;24368;52.156;20.788;2022-09-03T22:40:19;100982.35;;;13.73;61.50
38612;BME280;24368;52.156;20.788;2022-09-03T22:51:03;100993.44;;;13.59;62.10
38612;BME280;24368;52.156;20.788;2022-09-03T22:56:11;100994.27;;;13.54;61.91
38612;BME280;24368;52.156;20.788;2022-09-03T23:01:21;100991.57;;;13.51;61.29
38612;BME280;24368;52.156;20.788;2022-09-03T23:06:36;100991.02;;;13.49;61.23
38612;BME280;24368;52.156;20.788;2022-09-03T23:16:49;101003.74;;;13.29;63.48
38612;BME280;24368;52.156;20.788;2022-09-03T23:21:56;101013.05;;;13.18;63.90
38612;BME280;24368;52.156;20.788;2022-09-03T23:27:05;101019.54;;;13.01;65.01
38612;BME280;24368;52.156;20.788;2022-09-03T23:32:07;101020.96;;;12.98;65.19
38612;BME280;24368;52.156;20.788;2022-09-03T23:37:22;101031.74;;;12.84;65.88
38612;BME280;24368;52.156;20.788;2022-09-03T23:42:41;101032.02;;;12.67;66.33
38612;BME280;24368;52.156;20.788;2022-09-03T23:53:30;101035.27;;;12.61;67.60
